createdAt,value
2022-10-05T00:00:45.833Z,18.50
2022-10-05T00:03:12.217Z,9.60
2022-10-05T00:05:39.230Z,12.88
2022-10-05T00:08:14.061Z,9.10
2022-10-05T00:10:41.440Z,10.85
2022-10-05T00:13:28.660Z,9.57
2022-10-05T00:16:04.716Z,11.75
2022-10-05T00:18:32.457Z,12.00
2022-10-05T00:20:59.819Z,10.63
2022-10-05T00:23:30.502Z,10.18
2022-10-05T00:26:09.578Z,8.98
2022-10-05T00:28:35.974Z,10.57
2022-10-05T00:31:02.459Z,14.88
2022-10-05T00:33:28.877Z,8.57
2022-10-05T00:35:55.513Z,10.30
2022-10-05T00:38:22.367Z,9.13
2022-10-05T00:41:15.850Z,13.02
2022-10-05T00:43:54.355Z,11.68
2022-10-05T00:46:49.041Z,9.55
2022-10-05T00:49:27.604Z,14.52
2022-10-05T00:52:11.541Z,11.60
2022-10-05T00:54:46.335Z,12.35
2022-10-05T00:57:37.826Z,13.68
2022-10-05T01:00:04.135Z,14.98
2022-10-05T01:02:37.208Z,14.50
2022-10-05T01:05:24.149Z,11.60
2022-10-05T01:08:19.807Z,10.15
2022-10-05T01:11:14.529Z,10.27
2022-10-05T01:14:12.416Z,10.40
2022-10-05T01:16:54.496Z,12.00
2022-10-05T01:19:42.492Z,16.42
2022-10-05T01:22:47.957Z,14.13
2022-10-05T01:25:37.883Z,12.60
2022-10-05T01:28:12.811Z,11.55
2022-10-05T01:31:03.095Z,11.13
2022-10-05T01:33:41.888Z,12.52
2022-10-05T01:36:20.309Z,10.85
2022-10-05T01:39:03.961Z,13.40
2022-10-05T01:41:48.699Z,15.68
2022-10-05T01:44:25.059Z,21.38
2022-10-05T01:47:09.002Z,14.80
2022-10-05T01:49:45.494Z,16.08
2022-10-05T01:52:50.971Z,11.73
2022-10-05T01:55:36.278Z,11.50
2022-10-05T01:58:02.640Z,9.98
2022-10-05T02:00:32.747Z,10.60
2022-10-05T02:03:07.766Z,11.98
2022-10-05T02:05:52.837Z,12.48
2022-10-05T02:08:27.181Z,12.82
2022-10-05T02:11:01.406Z,12.77
2022-10-05T02:13:33.461Z,10.98
2022-10-05T02:16:38.942Z,13.75
2022-10-05T02:19:16.951Z,13.95
2022-10-05T02:21:46.206Z,13.18
2022-10-05T02:24:22.155Z,10.80
2022-10-05T02:26:51.010Z,14.38
2022-10-05T02:29:21.478Z,11.27
2022-10-05T02:31:54.495Z,10.02
2022-10-05T02:34:36.424Z,14.63
2022-10-05T02:37:28.683Z,12.23
2022-10-05T02:40:22.967Z,13.18
2022-10-05T02:42:57.983Z,12.80
2022-10-05T02:45:52.047Z,11.57
2022-10-05T02:48:52.526Z,17.67
2022-10-05T02:51:32.104Z,15.20
2022-10-05T02:54:16.160Z,13.20
2022-10-05T02:56:59.772Z,14.05
2022-10-05T02:59:38.441Z,14.63
2022-10-05T03:02:15.608Z,16.40
2022-10-05T03:05:18.672Z,12.75
2022-10-05T03:07:50.399Z,16.48
2022-10-05T03:10:35.630Z,16.33
2022-10-05T03:13:39.622Z,13.50
2022-10-05T03:16:18.213Z,12.88
2022-10-05T03:19:13.750Z,11.88
2022-10-05T03:21:51.311Z,14.10
2022-10-05T03:24:55.078Z,15.48
2022-10-05T03:27:44.809Z,18.20
2022-10-05T03:30:21.870Z,11.48
2022-10-05T03:32:57.034Z,15.07
2022-10-05T03:35:30.061Z,15.80
2022-10-05T03:38:06.354Z,13.18
2022-10-05T03:40:36.215Z,14.40
2022-10-05T03:43:24.369Z,12.57
2022-10-05T03:46:17.018Z,15.85
2022-10-05T03:48:57.645Z,14.38
2022-10-05T03:51:28.530Z,12.77
2022-10-05T03:54:00.745Z,14.68
2022-10-05T03:56:38.750Z,15.65
2022-10-05T03:59:18.144Z,16.40
2022-10-05T04:01:59.495Z,14.00
2022-10-05T04:05:04.909Z,15.77
2022-10-05T04:07:44.357Z,13.38
2022-10-05T04:10:17.521Z,11.43
2022-10-05T04:12:49.233Z,16.00
2022-10-05T04:15:21.595Z,11.02
2022-10-05T04:17:57.303Z,11.90
2022-10-05T04:20:46.820Z,12.50
2022-10-05T04:23:21.223Z,12.30
2022-10-05T04:25:53.007Z,17.92
2022-10-05T04:29:03.707Z,14.88
2022-10-05T04:31:56.025Z,12.63
2022-10-05T04:34:59.934Z,16.50
2022-10-05T04:37:46.671Z,14.93
2022-10-05T04:40:26.217Z,13.95
2022-10-05T04:43:10.454Z,12.88
2022-10-05T04:45:53.954Z,16.13
2022-10-05T04:48:35.214Z,18.70
2022-10-05T04:51:32.261Z,16.15
2022-10-05T04:54:20.600Z,16.38
2022-10-05T04:56:58.385Z,14.40
2022-10-05T04:59:52.877Z,14.68
2022-10-05T05:02:48.908Z,15.40
2022-10-05T05:05:22.862Z,12.82
2022-10-05T05:07:58.261Z,13.43
2022-10-05T05:10:55.270Z,13.70
2022-10-05T05:13:24.672Z,15.15
2022-10-05T05:16:05.276Z,11.77
2022-10-05T05:18:43.059Z,14.30
2022-10-05T05:21:21.336Z,13.30
2022-10-05T05:24:01.663Z,13.07
2022-10-05T05:26:57.051Z,11.20
2022-10-05T05:29:42.414Z,15.20
2022-10-05T05:34:57.463Z,16.20
2022-10-05T05:37:44.125Z,11.70
2022-10-05T05:40:20.391Z,14.18
2022-10-05T05:42:52.902Z,13.88
2022-10-05T05:45:41.843Z,15.98
2022-10-05T05:48:22.114Z,15.13
2022-10-05T05:51:36.676Z,13.27
2022-10-05T05:54:26.979Z,12.45
2022-10-05T05:56:58.442Z,12.65
2022-10-05T05:59:32.468Z,10.93
2022-10-05T06:02:13.895Z,12.88
2022-10-05T06:04:45.941Z,12.63
2022-10-05T06:07:30.181Z,13.60
2022-10-05T06:10:06.098Z,12.23
2022-10-05T06:12:41.237Z,13.52
2022-10-05T06:17:56.376Z,14.65
2022-10-05T06:20:30.944Z,11.05
2022-10-05T06:23:04.758Z,14.65
2022-10-05T06:25:56.762Z,12.57
2022-10-05T06:28:25.538Z,13.00
2022-10-05T06:31:17.826Z,13.10
2022-10-05T06:33:52.193Z,11.80
2022-10-05T06:36:45.737Z,10.82
2022-10-05T06:39:34.277Z,13.95
2022-10-05T06:42:23.017Z,9.63
2022-10-05T06:45:02.556Z,13.55
2022-10-05T06:47:44.948Z,14.10
2022-10-05T06:50:52.581Z,10.43
2022-10-05T06:53:24.695Z,16.13
2022-10-05T06:56:03.155Z,14.27
2022-10-05T06:58:29.493Z,12.15
2022-10-05T07:01:32.746Z,13.77
2022-10-05T07:04:02.119Z,13.13
2022-10-05T07:06:49.776Z,12.50
2022-10-05T07:09:34.952Z,17.13
2022-10-05T07:12:05.673Z,11.48
2022-10-05T07:14:45.168Z,14.15
2022-10-05T07:17:30.423Z,12.43
2022-10-05T07:20:25.988Z,14.90
2022-10-05T07:23:02.815Z,12.10
2022-10-05T07:25:37.118Z,17.02
2022-10-05T07:28:06.500Z,13.38
2022-10-05T07:30:48.245Z,11.13
2022-10-05T07:33:56.429Z,12.27
2022-10-05T07:36:54.970Z,12.80
2022-10-05T07:39:58.383Z,9.25
2022-10-05T07:42:52.770Z,10.40
2022-10-05T07:45:39.080Z,10.90
2022-10-05T07:48:33.190Z,13.45
2022-10-05T07:51:06.197Z,9.80
2022-10-05T07:53:39.766Z,10.98
2022-10-05T07:56:34.152Z,10.15
2022-10-05T07:59:07.868Z,8.43
2022-10-05T08:01:44.251Z,11.35
2022-10-05T08:04:24.104Z,11.32
2022-10-05T08:06:55.933Z,6.68
2022-10-05T08:09:40.917Z,9.07
2022-10-05T08:12:09.746Z,10.73
2022-10-05T08:14:48.246Z,11.52
2022-10-05T08:17:46.584Z,8.77
2022-10-05T08:20:29.858Z,9.80
2022-10-05T08:23:15.252Z,8.00
2022-10-05T08:25:56.602Z,10.65
2022-10-05T08:28:47.143Z,7.53
2022-10-05T08:31:33.593Z,8.85
2022-10-05T08:34:34.583Z,11.05
2022-10-05T08:37:00.974Z,8.93
2022-10-05T08:39:34.169Z,9.73
2022-10-05T08:42:19.221Z,9.25
2022-10-05T08:45:09.655Z,8.25
2022-10-05T08:47:57.423Z,9.52
2022-10-05T08:50:45.497Z,6.25
2022-10-05T08:53:30.628Z,7.32
2022-10-05T08:56:33.754Z,7.72
2022-10-05T08:59:21.774Z,7.82
2022-10-05T09:02:06.913Z,7.05
2022-10-05T09:04:50.144Z,9.07
2022-10-05T09:07:52.419Z,6.57
2022-10-05T09:10:24.808Z,7.57
2022-10-05T09:12:51.132Z,13.77
2022-10-05T09:15:46.817Z,7.00
2022-10-05T09:21:03.180Z,7.35
2022-10-05T09:23:39.740Z,7.97
2022-10-05T09:26:43.349Z,7.40
2022-10-05T09:29:37.626Z,7.05
2022-10-05T09:32:23.385Z,7.50
2022-10-05T09:34:53.646Z,6.40
2022-10-05T09:37:38.453Z,6.45
2022-10-05T09:40:44.469Z,6.88
2022-10-05T09:43:33.543Z,7.57
2022-10-05T09:46:28.690Z,8.38
2022-10-05T09:49:10.922Z,8.98
2022-10-05T09:51:55.726Z,10.20
2022-10-05T09:54:33.576Z,9.80
2022-10-05T09:57:21.873Z,7.55
2022-10-05T10:00:03.470Z,12.27
2022-10-05T10:02:49.510Z,11.93
2022-10-05T10:05:31.336Z,6.75
2022-10-05T10:08:56.328Z,7.93
2022-10-05T10:11:36.130Z,8.70
2022-10-05T10:14:39.086Z,11.05
2022-10-05T10:17:27.109Z,5.65
2022-10-05T10:20:26.259Z,9.75
2022-10-05T10:23:14.483Z,8.38
2022-10-05T10:26:09.045Z,5.93
2022-10-05T10:28:55.166Z,6.47
2022-10-05T10:31:39.897Z,9.57
2022-10-05T10:34:18.467Z,6.53
2022-10-05T10:37:14.154Z,9.85
2022-10-05T10:43:10.849Z,5.75
2022-10-05T10:45:48.852Z,6.00
2022-10-05T10:48:30.471Z,6.22
2022-10-05T10:51:06.167Z,5.28
2022-10-05T10:54:12.153Z,5.10
2022-10-05T10:59:31.599Z,5.43
2022-10-05T11:02:19.985Z,7.43
2022-10-05T11:05:21.853Z,7.03
2022-10-05T11:07:48.212Z,8.70
2022-10-05T11:10:34.778Z,4.88
2022-10-05T11:13:24.610Z,4.10
2022-10-05T11:16:03.157Z,5.25
2022-10-05T11:18:38.169Z,7.53
2022-10-05T11:21:22.527Z,4.88
2022-10-05T11:24:20.666Z,4.30
2022-10-05T11:27:03.231Z,6.25
2022-10-05T11:30:07.250Z,5.72
2022-10-05T11:32:56.140Z,6.00
2022-10-05T11:35:47.202Z,5.80
2022-10-05T11:39:02.010Z,6.65
2022-10-05T11:41:43.619Z,6.60
2022-10-05T11:44:27.078Z,3.38
2022-10-05T11:47:08.956Z,5.63
2022-10-05T11:50:05.517Z,6.72
2022-10-05T11:52:50.402Z,9.57
2022-10-05T11:58:01.707Z,5.97
2022-10-05T12:00:36.080Z,4.05
2022-10-05T12:03:09.359Z,8.43
2022-10-05T12:05:44.890Z,4.03
2022-10-05T12:08:23.282Z,5.03
2022-10-05T12:11:26.806Z,5.97
2022-10-05T12:14:00.009Z,5.15
2022-10-05T12:16:49.511Z,5.55
2022-10-05T12:19:29.586Z,4.03
2022-10-05T12:22:04.086Z,5.00
2022-10-05T12:27:16.327Z,6.13
2022-10-05T12:29:57.805Z,8.55
2022-10-05T12:32:33.967Z,6.28
2022-10-05T12:35:36.552Z,3.78
2022-10-05T12:38:36.866Z,8.48
2022-10-05T12:41:07.765Z,6.93
2022-10-05T12:43:48.934Z,5.47
2022-10-05T12:46:25.245Z,4.82
2022-10-05T12:49:18.514Z,3.88
2022-10-05T12:51:56.475Z,3.70
2022-10-05T12:54:34.962Z,2.88
2022-10-05T12:57:47.800Z,4.45
2022-10-05T13:00:22.465Z,4.72
2022-10-05T13:03:17.376Z,4.65
2022-10-05T13:06:04.130Z,2.97
2022-10-05T13:08:40.171Z,4.75
2022-10-05T13:11:31.008Z,3.40
2022-10-05T13:14:11.948Z,2.65
2022-10-05T13:16:59.308Z,3.58
2022-10-05T13:19:44.582Z,2.92
2022-10-05T13:22:52.438Z,2.72
2022-10-05T13:25:21.773Z,6.95
2022-10-05T13:28:10.510Z,5.93
2022-10-05T13:30:40.390Z,2.88
2022-10-05T13:33:17.936Z,3.83
2022-10-05T13:36:04.833Z,5.22
2022-10-05T13:38:46.212Z,6.10
2022-10-05T13:41:24.409Z,1.58
2022-10-05T13:44:00.117Z,2.97
2022-10-05T13:46:33.198Z,2.78
2022-10-05T13:49:11.827Z,5.43
2022-10-05T13:52:01.387Z,8.00
2022-10-05T13:54:37.843Z,4.65
2022-10-05T13:57:29.938Z,6.07
2022-10-05T14:00:05.955Z,2.58
2022-10-05T14:02:40.034Z,3.30
2022-10-05T14:05:27.908Z,2.45
2022-10-05T14:07:58.567Z,7.82
2022-10-05T14:10:38.817Z,9.07
2022-10-05T14:13:23.686Z,3.95
2022-10-05T14:18:29.795Z,3.42
2022-10-05T14:21:03.991Z,2.35
2022-10-05T14:23:30.537Z,3.08
2022-10-05T14:25:57.401Z,5.10
2022-10-05T14:28:29.684Z,5.47
2022-10-05T14:30:59.279Z,2.42
2022-10-05T14:33:30.682Z,5.00
2022-10-05T14:35:58.602Z,3.95
2022-10-05T14:38:49.498Z,3.40
2022-10-05T14:41:28.378Z,3.33
2022-10-05T14:44:13.076Z,4.47
2022-10-05T14:46:52.890Z,4.65
2022-10-05T14:49:24.312Z,2.97
2022-10-05T14:51:51.509Z,3.05
2022-10-05T14:54:25.779Z,2.17
2022-10-05T14:57:06.393Z,2.75
2022-10-05T14:59:59.990Z,2.85
2022-10-05T15:02:45.219Z,3.83
2022-10-05T15:05:26.681Z,6.55
2022-10-05T15:08:01.031Z,1.73
2022-10-05T15:10:30.472Z,3.88
2022-10-05T15:13:19.082Z,3.55
2022-10-05T15:15:51.012Z,3.67
2022-10-05T15:18:45.336Z,5.47
2022-10-05T15:21:40.492Z,3.67
2022-10-05T15:24:20.124Z,7.78
2022-10-05T15:26:51.678Z,3.58
2022-10-05T15:29:30.922Z,4.68
2022-10-05T15:32:14.426Z,4.45
2022-10-05T15:35:31.362Z,4.93
2022-10-05T15:38:21.030Z,4.88
2022-10-05T15:41:15.948Z,5.45
2022-10-05T15:44:00.833Z,4.55
2022-10-05T15:47:04.944Z,5.07
2022-10-05T15:49:46.612Z,4.90
2022-10-05T15:52:27.954Z,3.33
2022-10-05T15:55:02.219Z,3.25
2022-10-05T15:57:40.548Z,5.80
2022-10-05T16:00:16.544Z,2.90
2022-10-05T16:03:02.030Z,2.38
2022-10-05T16:06:06.337Z,6.65
2022-10-05T16:08:50.591Z,5.82
2022-10-05T16:11:40.542Z,6.18
2022-10-05T16:14:19.977Z,7.10
2022-10-05T16:17:02.583Z,4.55
2022-10-05T16:19:35.016Z,5.15
2022-10-05T16:22:16.808Z,4.35
2022-10-05T16:24:49.173Z,3.65
2022-10-05T16:27:20.641Z,6.13
2022-10-05T16:30:00.982Z,4.18
2022-10-05T16:32:30.258Z,6.35
2022-10-05T16:35:19.351Z,5.07
2022-10-05T16:38:24.919Z,5.40
2022-10-05T16:43:49.480Z,3.63
2022-10-05T16:46:34.586Z,5.30
2022-10-05T16:52:18.854Z,4.15
2022-10-05T16:54:51.254Z,4.07
2022-10-05T16:57:23.956Z,4.47
2022-10-05T17:00:04.338Z,4.53
2022-10-05T17:02:43.329Z,6.18
2022-10-05T17:05:24.834Z,6.95
2022-10-05T17:08:01.217Z,7.07
2022-10-05T17:11:00.030Z,5.47
2022-10-05T17:13:53.495Z,5.78
2022-10-05T17:16:26.026Z,5.63
2022-10-05T17:19:05.955Z,6.95
2022-10-05T17:22:22.677Z,7.47
2022-10-05T17:24:57.911Z,7.22
2022-10-05T17:28:01.778Z,7.00
2022-10-05T17:30:48.413Z,8.55
2022-10-05T17:33:21.927Z,5.97
2022-10-05T17:36:08.541Z,8.15
2022-10-05T17:38:34.841Z,4.20
2022-10-05T17:41:04.757Z,5.65
2022-10-05T17:43:32.626Z,4.93
2022-10-05T17:46:10.334Z,5.05
2022-10-05T17:48:54.108Z,7.40
2022-10-05T17:51:48.203Z,4.65
2022-10-05T17:54:41.666Z,8.35
2022-10-05T17:57:07.933Z,3.72
2022-10-05T17:59:53.894Z,5.28
2022-10-05T18:02:37.424Z,6.45
2022-10-05T18:05:06.656Z,5.93
2022-10-05T18:07:37.352Z,6.55
2022-10-05T18:10:09.579Z,5.03
2022-10-05T18:12:48.746Z,5.38
2022-10-05T18:15:23.274Z,5.72
2022-10-05T18:18:32.470Z,6.57
2022-10-05T18:21:08.018Z,5.40
2022-10-05T18:23:36.264Z,4.53
2022-10-05T18:26:20.317Z,3.78
2022-10-05T18:28:52.528Z,3.33
2022-10-05T18:31:36.012Z,6.30
2022-10-05T18:34:08.889Z,4.22
2022-10-05T18:37:03.306Z,3.92
2022-10-05T18:40:08.525Z,6.55
2022-10-05T18:43:18.300Z,4.55
2022-10-05T18:45:54.109Z,4.78
2022-10-05T18:48:35.412Z,5.53
2022-10-05T18:51:17.818Z,9.18
2022-10-05T18:54:07.241Z,3.80
2022-10-05T18:56:43.825Z,6.97
2022-10-05T18:59:24.089Z,8.98
2022-10-05T19:02:04.401Z,4.78
2022-10-05T19:05:02.372Z,5.90
2022-10-05T19:07:28.725Z,3.88
2022-10-05T19:10:28.381Z,6.40
2022-10-05T19:13:00.652Z,6.85
2022-10-05T19:15:41.740Z,5.50
2022-10-05T19:18:08.115Z,3.80
2022-10-05T19:20:57.982Z,4.07
2022-10-05T19:23:38.814Z,5.63
2022-10-05T19:26:17.967Z,4.65
2022-10-05T19:29:18.303Z,4.93
2022-10-05T19:31:54.519Z,8.13
2022-10-05T19:34:42.298Z,4.60
2022-10-05T19:37:24.144Z,6.90
2022-10-05T19:39:58.707Z,4.05
2022-10-05T19:42:47.194Z,4.60
2022-10-05T19:45:28.278Z,5.78
2022-10-05T19:48:00.671Z,3.50
2022-10-05T19:50:37.601Z,5.22
2022-10-05T19:55:56.048Z,5.97
2022-10-05T19:58:31.458Z,4.75
2022-10-05T20:01:00.645Z,5.25
2022-10-05T20:03:29.461Z,4.88
2022-10-05T20:06:01.506Z,6.28
2022-10-05T20:08:39.312Z,3.90
2022-10-05T20:11:13.637Z,5.65
2022-10-05T20:14:09.420Z,4.85
2022-10-05T20:16:57.523Z,4.63
2022-10-05T20:19:51.652Z,6.32
2022-10-05T20:22:46.238Z,5.75
2022-10-05T20:25:31.764Z,5.77
2022-10-05T20:27:58.454Z,6.03
2022-10-05T20:30:40.367Z,4.68
2022-10-05T20:33:11.553Z,3.15
2022-10-05T20:35:38.039Z,6.13
2022-10-05T20:38:04.548Z,2.65
2022-10-05T20:40:30.916Z,3.92
2022-10-05T20:42:58.211Z,7.90
2022-10-05T20:45:24.801Z,5.20
2022-10-05T20:47:51.237Z,5.05
2022-10-05T20:50:17.950Z,4.82
2022-10-05T20:52:44.570Z,4.43
2022-10-05T20:55:12.396Z,3.85
2022-10-05T20:57:41.959Z,4.43
2022-10-05T21:00:10.267Z,5.95
2022-10-05T21:02:37.213Z,8.93
2022-10-05T21:05:04.550Z,7.55
2022-10-05T21:07:31.166Z,3.00
2022-10-05T21:09:57.586Z,5.78
2022-10-05T21:12:23.959Z,5.70
2022-10-05T21:14:52.564Z,4.18
2022-10-05T21:17:20.117Z,4.30
2022-10-05T21:19:46.980Z,5.75
2022-10-05T21:22:13.377Z,7.70
2022-10-05T21:24:40.854Z,3.67
2022-10-05T21:27:08.373Z,8.40
2022-10-05T21:29:36.400Z,6.03
2022-10-05T21:32:08.201Z,8.30
2022-10-05T21:34:35.064Z,4.32
2022-10-05T21:37:01.387Z,5.10
2022-10-05T21:39:27.793Z,9.18
2022-10-05T21:41:54.212Z,9.55
2022-10-05T21:44:20.588Z,4.85
2022-10-05T21:46:48.129Z,6.35
2022-10-05T21:49:17.615Z,7.63
2022-10-05T21:51:46.026Z,4.80
2022-10-05T21:54:16.774Z,5.88
2022-10-05T21:56:47.855Z,8.00
2022-10-05T21:59:18.727Z,4.30
2022-10-05T22:01:45.173Z,4.50
2022-10-05T22:04:11.697Z,3.08
2022-10-05T22:06:38.121Z,5.60
2022-10-05T22:09:04.929Z,1.73
2022-10-05T22:11:31.576Z,3.80
2022-10-05T22:14:02.385Z,3.83
2022-10-05T22:16:34.063Z,2.50
2022-10-05T22:19:14.231Z,3.15
2022-10-05T22:21:41.746Z,2.67
2022-10-05T22:24:11.357Z,2.65
2022-10-05T22:26:38.772Z,5.72
2022-10-05T22:29:05.312Z,6.32
2022-10-05T22:31:31.814Z,3.22
2022-10-05T22:33:58.309Z,3.97
2022-10-05T22:36:24.824Z,3.13
2022-10-05T22:38:51.186Z,2.95
2022-10-05T22:41:20.506Z,3.58
2022-10-05T22:43:49.892Z,2.42
2022-10-05T22:46:16.868Z,3.78
2022-10-05T22:48:43.330Z,2.67
2022-10-05T22:51:10.010Z,6.90
2022-10-05T22:53:36.406Z,2.85
2022-10-05T22:56:11.225Z,6.15
2022-10-05T23:01:10.431Z,5.35
2022-10-05T23:03:37.066Z,5.38
2022-10-05T23:06:09.807Z,2.10
2022-10-05T23:08:37.868Z,4.55
2022-10-05T23:11:23.609Z,10.10
2022-10-05T23:13:52.131Z,6.15
2022-10-05T23:16:21.072Z,3.65
2022-10-05T23:18:49.065Z,6.78
2022-10-05T23:21:16.139Z,3.15
2022-10-05T23:23:47.270Z,4.57
2022-10-05T23:26:13.904Z,3.15
2022-10-05T23:28:46.205Z,2.80
2022-10-05T23:31:15.211Z,5.68
2022-10-05T23:33:41.785Z,3.05
2022-10-05T23:36:17.444Z,3.50
2022-10-05T23:38:43.909Z,4.60
2022-10-05T23:41:10.802Z,2.15
2022-10-05T23:43:37.289Z,3.20
2022-10-05T23:46:05.568Z,4.43
2022-10-05T23:48:32.396Z,5.07
2022-10-05T23:50:59.592Z,7.32
2022-10-05T23:53:26.148Z,5.72
2022-10-05T23:55:53.373Z,4.75
2022-10-05T23:58:20.518Z,3.58
